Time;durP1;ratioP1;P1;durP2;ratioP2;P2;SDS_P1;SDS_P2;PMS_P1;PMS_P2;Temp;Humidity;BMP_temperature;BMP_pressure;BME280_temperature;BME280_humidity;BME280_pressure;Samples;Min_cycle;Max_cycle;Signal;HPM_P1;HPM_P2
2022/10/16 00:01:11;;;;;;;3.70;3.07;;;;;;;;;;5074225;28;20392;-43
2022/10/16 00:03:38;;;;;;;5.80;3.40;;;;;;;;;;5074718;28;20435;-43
2022/10/16 00:06:05;;;;;;;6.73;3.50;;;;;;;;;;5074595;28;20407;-43
2022/10/16 00:08:31;;;;;;;3.70;2.83;;;;;;;;;;5074572;28;20420;-43
2022/10/16 00:11:01;;;;;;;6.67;2.87;;;;;;;;;;5074209;28;20413;-43
2022/10/16 00:13:27;;;;;;;3.53;2.60;;;;;;;;;;5074576;28;20403;-43
2022/10/16 00:15:55;;;;;;;3.83;2.67;;;;;;;;;;5074422;28;20413;-43
2022/10/16 00:18:21;;;;;;;6.77;2.90;;;;;;;;;;5074376;28;20408;-43
2022/10/16 00:20:47;;;;;;;4.90;2.43;;;;;;;;;;5073936;28;20458;-43
2022/10/16 00:23:13;;;;;;;2.77;2.57;;;;;;;;;;5074500;28;20916;-43
2022/10/16 00:25:39;;;;;;;4.80;2.80;;;;;;;;;;5074343;28;20821;-43
2022/10/16 00:28:05;;;;;;;5.43;2.90;;;;;;;;;;5074342;28;20455;-43
2022/10/16 00:30:31;;;;;;;6.20;2.70;;;;;;;;;;5073603;28;20458;-43
2022/10/16 00:32:57;;;;;;;3.23;2.60;;;;;;;;;;5074593;28;20407;-43
2022/10/16 00:35:23;;;;;;;8.77;2.77;;;;;;;;;;5074136;28;20415;-43
2022/10/16 00:37:49;;;;;;;2.77;2.57;;;;;;;;;;5074336;28;20418;-44
2022/10/16 00:40:15;;;;;;;7.70;3.77;;;;;;;;;;5073401;28;20456;-43
2022/10/16 00:42:41;;;;;;;4.23;2.60;;;;;;;;;;5074156;28;20804;-43
2022/10/16 00:45:09;;;;;;;3.67;2.37;;;;;;;;;;5073016;28;20400;-43
2022/10/16 00:47:40;;;;;;;4.80;2.47;;;;;;;;;;5074169;28;20407;-43
2022/10/16 00:50:09;;;;;;;2.77;2.33;;;;;;;;;;5073375;28;20428;-43
2022/10/16 00:52:35;;;;;;;2.50;2.30;;;;;;;;;;5060517;28;20416;-43
2022/10/16 00:55:03;;;;;;;4.13;3.07;;;;;;;;;;5053815;28;20447;-43
2022/10/16 00:57:29;;;;;;;4.10;2.60;;;;;;;;;;5054341;28;20481;-43
2022/10/16 00:59:55;;;;;;;3.00;2.40;;;;;;;;;;5053119;28;20562;-43
2022/10/16 01:02:21;;;;;;;4.90;2.50;;;;;;;;;;5052896;28;20500;-43
2022/10/16 01:04:52;;;;;;;3.77;2.30;;;;;;;;;;5053084;28;20405;-43
2022/10/16 01:07:37;;;;;;;2.73;2.40;;;;;;;;;;5053455;28;20388;-43
2022/10/16 01:10:09;;;;;;;4.00;2.00;;;;;;;;;;5052935;28;20475;-43
2022/10/16 01:12:51;;;;;;;2.40;2.20;;;;;;;;;;5053680;28;20364;-43
2022/10/16 01:15:27;;;;;;;3.63;3.03;;;;;;;;;;5053496;28;20449;-43
2022/10/16 01:18:05;;;;;;;7.93;2.50;;;;;;;;;;5053464;28;20435;-43
2022/10/16 01:20:34;;;;;;;3.77;2.30;;;;;;;;;;5053051;28;20604;-43
2022/10/16 01:23:19;;;;;;;2.77;2.57;;;;;;;;;;5053536;28;20909;-43
2022/10/16 01:25:53;;;;;;;2.87;2.50;;;;;;;;;;5053320;28;20407;-43
2022/10/16 01:28:21;;;;;;;2.73;2.37;;;;;;;;;;5053330;28;20423;-43
2022/10/16 01:30:48;;;;;;;2.80;2.40;;;;;;;;;;5052655;28;20407;-43
2022/10/16 01:33:17;;;;;;;5.00;2.50;;;;;;;;;;5053190;28;20492;-43
2022/10/16 01:35:46;;;;;;;6.53;2.70;;;;;;;;;;5053060;28;20436;-43
2022/10/16 01:38:19;;;;;;;4.00;1.90;;;;;;;;;;5053205;28;20461;-43
2022/10/16 01:40:47;;;;;;;2.80;2.33;;;;;;;;;;5052542;28;20968;-43
2022/10/16 01:43:19;;;;;;;6.07;2.57;;;;;;;;;;5052935;28;20407;-43
2022/10/16 01:45:46;;;;;;;3.13;2.43;;;;;;;;;;5052916;28;20770;-43
2022/10/16 01:48:18;;;;;;;3.00;2.20;;;;;;;;;;5052843;28;20482;-44
2022/10/16 01:50:45;;;;;;;2.70;2.50;;;;;;;;;;5052390;28;20384;-43
2022/10/16 01:53:13;;;;;;;2.43;2.17;;;;;;;;;;5052941;28;20408;-43
2022/10/16 01:55:43;;;;;;;6.73;2.50;;;;;;;;;;5051517;28;20401;-43
2022/10/16 01:58:10;;;;;;;4.50;2.00;;;;;;;;;;5052396;28;20426;-43
2022/10/16 02:00:38;;;;;;;3.23;2.20;;;;;;;;;;5052075;28;20483;-43
2022/10/16 02:03:05;;;;;;;2.77;2.57;;;;;;;;;;5052634;28;20514;-43
2022/10/16 02:05:32;;;;;;;3.40;2.10;;;;;;;;;;5052577;28;20404;-44
2022/10/16 02:07:58;;;;;;;3.53;2.23;;;;;;;;;;5052570;28;20459;-43
2022/10/16 02:10:25;;;;;;;2.10;2.00;;;;;;;;;;5052122;28;20781;-43
2022/10/16 02:12:56;;;;;;;2.47;2.27;;;;;;;;;;5052579;28;20417;-43
2022/10/16 02:15:22;;;;;;;2.80;2.60;;;;;;;;;;5052252;28;20403;-43
2022/10/16 02:17:48;;;;;;;3.13;1.80;;;;;;;;;;5052344;28;20550;-44
2022/10/16 02:20:14;;;;;;;2.80;2.60;;;;;;;;;;5051756;28;20427;-43
2022/10/16 02:22:45;;;;;;;2.20;2.00;;;;;;;;;;5052347;28;20441;-43
2022/10/16 02:25:23;;;;;;;4.40;2.33;;;;;;;;;;5052064;28;20916;-43
2022/10/16 02:27:52;;;;;;;5.43;2.00;;;;;;;;;;5052301;28;20418;-43
2022/10/16 02:30:21;;;;;;;2.40;2.20;;;;;;;;;;5051614;28;20481;-43
2022/10/16 02:32:48;;;;;;;9.43;2.73;;;;;;;;;;5052228;28;20397;-43
2022/10/16 02:35:15;;;;;;;3.13;2.60;;;;;;;;;;5051740;28;20433;-43
2022/10/16 02:37:42;;;;;;;2.07;1.87;;;;;;;;;;5052087;28;20419;-43
2022/10/16 02:40:08;;;;;;;2.70;2.60;;;;;;;;;;5051299;28;20454;-43
2022/10/16 02:42:35;;;;;;;2.33;2.07;;;;;;;;;;5052074;28;20462;-43
2022/10/16 02:45:01;;;;;;;3.77;2.70;;;;;;;;;;5051998;28;20431;-43
2022/10/16 02:47:27;;;;;;;2.80;2.60;;;;;;;;;;5051858;28;20412;-43
2022/10/16 02:49:53;;;;;;;3.90;2.10;;;;;;;;;;5051060;28;20539;-43
2022/10/16 02:52:19;;;;;;;2.07;1.90;;;;;;;;;;5052183;28;20411;-43
2022/10/16 02:54:45;;;;;;;2.27;2.07;;;;;;;;;;5051869;28;20439;-43
2022/10/16 02:57:11;;;;;;;3.53;1.73;;;;;;;;;;5051668;28;20484;-43
2022/10/16 02:59:37;;;;;;;2.90;2.37;;;;;;;;;;5051011;28;20455;-43
2022/10/16 03:02:03;;;;;;;2.47;2.27;;;;;;;;;;5051859;28;20416;-43
2022/10/16 03:04:29;;;;;;;3.70;2.10;;;;;;;;;;5051530;28;20436;-43
2022/10/16 03:06:55;;;;;;;2.00;1.80;;;;;;;;;;5051296;28;20710;-43
2022/10/16 03:09:21;;;;;;;2.13;1.93;;;;;;;;;;5050988;28;20994;-44
2022/10/16 03:11:47;;;;;;;2.07;1.97;;;;;;;;;;5052021;28;20420;-43
2022/10/16 03:14:13;;;;;;;4.60;2.30;;;;;;;;;;5051607;28;20407;-43
2022/10/16 03:16:39;;;;;;;3.43;2.00;;;;;;;;;;5051401;28;20482;-44
2022/10/16 03:19:05;;;;;;;2.17;2.07;;;;;;;;;;5050617;28;20460;-43
2022/10/16 03:21:31;;;;;;;1.90;1.80;;;;;;;;;;5051581;28;20514;-44
2022/10/16 03:23:57;;;;;;;2.00;1.90;;;;;;;;;;5051562;28;20397;-43
2022/10/16 03:26:23;;;;;;;2.40;1.60;;;;;;;;;;5051305;28;20459;-43
2022/10/16 03:28:49;;;;;;;1.63;1.53;;;;;;;;;;5051301;28;20435;-43
2022/10/16 03:31:15;;;;;;;2.03;1.93;;;;;;;;;;5051138;28;20382;-43
2022/10/16 03:33:41;;;;;;;2.00;1.90;;;;;;;;;;5051320;28;20930;-43
2022/10/16 03:36:07;;;;;;;2.00;1.83;;;;;;;;;;5051538;28;20403;-43
2022/10/16 03:38:33;;;;;;;6.13;2.53;;;;;;;;;;5050916;28;20464;-43
2022/10/16 03:40:59;;;;;;;1.73;1.63;;;;;;;;;;5050939;28;20880;-43
2022/10/16 03:43:25;;;;;;;2.43;1.80;;;;;;;;;;5051364;28;20426;-43
2022/10/16 03:45:51;;;;;;;2.23;2.07;;;;;;;;;;5051451;28;20504;-43
2022/10/16 03:48:18;;;;;;;3.03;1.60;;;;;;;;;;5051380;28;20516;-43
2022/10/16 03:50:44;;;;;;;2.20;2.10;;;;;;;;;;5051022;28;20434;-43
2022/10/16 03:53:10;;;;;;;4.10;1.80;;;;;;;;;;5051354;28;20409;-43
2022/10/16 03:55:36;;;;;;;4.43;1.70;;;;;;;;;;5051497;28;20440;-43
2022/10/16 03:58:02;;;;;;;2.80;1.60;;;;;;;;;;5050856;28;20906;-43
2022/10/16 04:00:28;;;;;;;1.67;1.57;;;;;;;;;;5051014;28;20458;-43
2022/10/16 04:02:54;;;;;;;1.70;1.60;;;;;;;;;;5050981;28;20493;-43
2022/10/16 04:05:20;;;;;;;2.57;1.80;;;;;;;;;;5051143;28;20397;-43
2022/10/16 04:07:46;;;;;;;2.67;1.60;;;;;;;;;;5050881;28;20893;-43
2022/10/16 04:10:12;;;;;;;2.20;2.10;;;;;;;;;;5050516;28;20415;-43
2022/10/16 04:12:37;;;;;;;1.80;1.70;;;;;;;;;;5051065;28;20412;-43
2022/10/16 04:15:04;;;;;;;2.90;2.00;;;;;;;;;;5051121;28;20440;-43
2022/10/16 04:17:29;;;;;;;3.93;1.87;;;;;;;;;;5050818;28;20891;-43
2022/10/16 04:19:55;;;;;;;2.30;1.80;;;;;;;;;;5053148;28;20590;-43
2022/10/16 04:22:21;;;;;;;3.10;2.00;;;;;;;;;;5055337;28;20406;-43
2022/10/16 04:24:47;;;;;;;2.00;1.80;;;;;;;;;;5054616;28;20896;-43
2022/10/16 04:27:13;;;;;;;1.70;1.60;;;;;;;;;;5054398;28;20842;-43
2022/10/16 04:29:39;;;;;;;1.47;1.37;;;;;;;;;;5053794;28;20424;-44
2022/10/16 04:32:05;;;;;;;2.93;1.80;;;;;;;;;;5054394;28;20417;-44
2022/10/16 04:34:31;;;;;;;2.50;2.27;;;;;;;;;;5054390;28;20677;-43
2022/10/16 04:36:57;;;;;;;1.83;1.73;;;;;;;;;;5054674;28;20403;-43
2022/10/16 04:39:23;;;;;;;2.00;1.90;;;;;;;;;;5053305;28;20502;-43
2022/10/16 04:41:49;;;;;;;1.53;1.43;;;;;;;;;;5054290;28;20412;-43
2022/10/16 04:44:15;;;;;;;1.80;1.70;;;;;;;;;;5054226;28;20792;-43
2022/10/16 04:46:41;;;;;;;2.03;1.80;;;;;;;;;;5054194;28;20403;-43
2022/10/16 04:49:07;;;;;;;3.20;1.80;;;;;;;;;;5053270;28;20481;-44
2022/10/16 04:51:33;;;;;;;1.80;1.70;;;;;;;;;;5054174;28;20437;-43
2022/10/16 04:53:59;;;;;;;1.97;1.87;;;;;;;;;;5053212;28;20476;-43
2022/10/16 04:56:25;;;;;;;1.60;1.50;;;;;;;;;;5054005;28;20880;-43
2022/10/16 04:58:51;;;;;;;2.10;1.73;;;;;;;;;;5048091;28;20616;-43
2022/10/16 05:01:17;;;;;;;1.83;1.73;;;;;;;;;;5053142;28;20392;-43
2022/10/16 05:03:43;;;;;;;1.60;1.50;;;;;;;;;;5053705;28;20912;-44
2022/10/16 05:06:09;;;;;;;1.63;1.47;;;;;;;;;;5052655;28;20512;-43
2022/10/16 05:08:35;;;;;;;1.77;1.50;;;;;;;;;;5052497;28;20950;-43
2022/10/16 05:11:01;;;;;;;1.87;1.77;;;;;;;;;;5052671;28;20483;-43
2022/10/16 05:13:27;;;;;;;2.03;1.93;;;;;;;;;;5053097;28;20403;-43
2022/10/16 05:15:53;;;;;;;1.70;1.50;;;;;;;;;;5055841;28;20420;-44
2022/10/16 05:18:19;;;;;;;2.07;1.90;;;;;;;;;;5053541;28;20423;-43
2022/10/16 05:20:45;;;;;;;1.90;1.80;;;;;;;;;;5052693;28;20539;-43
2022/10/16 05:23:11;;;;;;;2.00;1.70;;;;;;;;;;5053440;28;20401;-43
2022/10/16 05:25:38;;;;;;;1.73;1.63;;;;;;;;;;5070665;28;20435;-43
2022/10/16 05:28:04;;;;;;;1.90;1.80;;;;;;;;;;5073210;28;20438;-43
2022/10/16 05:30:30;;;;;;;3.43;1.80;;;;;;;;;;5072083;28;20422;-43
2022/10/16 05:32:56;;;;;;;1.70;1.60;;;;;;;;;;5066814;28;20515;-43
2022/10/16 05:35:22;;;;;;;1.70;1.60;;;;;;;;;;5052416;28;20482;-43
2022/10/16 05:37:48;;;;;;;2.70;1.60;;;;;;;;;;5052647;28;20463;-43
2022/10/16 05:40:14;;;;;;;3.97;1.77;;;;;;;;;;5052034;28;20454;-43
2022/10/16 05:42:41;;;;;;;2.83;2.20;;;;;;;;;;5053588;28;20401;-43
2022/10/16 05:45:07;;;;;;;1.77;1.67;;;;;;;;;;5052558;28;20780;-43
2022/10/16 05:47:33;;;;;;;2.97;2.27;;;;;;;;;;5051797;28;20489;-43
2022/10/16 05:49:59;;;;;;;3.33;2.10;;;;;;;;;;5051952;28;20433;-43
2022/10/16 05:52:25;;;;;;;3.70;2.27;;;;;;;;;;5051069;28;20453;-44
2022/10/16 05:54:51;;;;;;;1.90;1.70;;;;;;;;;;5051064;28;20456;-43
2022/10/16 05:57:17;;;;;;;2.50;2.27;;;;;;;;;;5050940;28;20399;-43
2022/10/16 05:59:43;;;;;;;1.93;1.83;;;;;;;;;;5049428;28;20432;-43
2022/10/16 06:02:12;;;;;;;1.80;1.70;;;;;;;;;;5049939;28;20453;-43
2022/10/16 06:04:38;;;;;;;1.80;1.70;;;;;;;;;;5050640;28;20423;-43
2022/10/16 06:07:04;;;;;;;3.73;2.00;;;;;;;;;;5051775;28;20385;-43
2022/10/16 06:09:30;;;;;;;4.40;1.97;;;;;;;;;;5051598;28;20575;-43
2022/10/16 06:11:56;;;;;;;3.53;1.97;;;;;;;;;;5051430;28;20414;-43
2022/10/16 06:14:22;;;;;;;3.43;2.20;;;;;;;;;;5051211;28;20462;-43
2022/10/16 06:16:48;;;;;;;2.30;1.67;;;;;;;;;;5051650;28;20961;-43
2022/10/16 06:19:16;;;;;;;2.70;1.97;;;;;;;;;;5051399;28;20447;-43
2022/10/16 06:21:42;;;;;;;1.80;1.70;;;;;;;;;;5051310;28;20503;-43
2022/10/16 06:24:08;;;;;;;2.90;1.90;;;;;;;;;;5051830;28;20938;-43
2022/10/16 06:26:34;;;;;;;3.20;1.77;;;;;;;;;;5051620;28;20405;-43
2022/10/16 06:29:00;;;;;;;4.60;2.03;;;;;;;;;;5051332;28;20471;-43
2022/10/16 06:31:28;;;;;;;1.80;1.70;;;;;;;;;;5041871;28;20410;-43
2022/10/16 06:33:56;;;;;;;2.50;2.17;;;;;;;;;;5038740;28;20457;-42
2022/10/16 06:36:22;;;;;;;3.80;1.93;;;;;;;;;;5038895;28;20431;-42
2022/10/16 06:38:48;;;;;;;4.17;1.90;;;;;;;;;;5031675;28;20429;-42
2022/10/16 06:41:15;;;;;;;1.90;1.80;;;;;;;;;;5030488;28;20394;-42
2022/10/16 06:43:41;;;;;;;2.07;1.87;;;;;;;;;;5032570;28;20413;-41
2022/10/16 06:46:08;;;;;;;2.13;2.03;;;;;;;;;;5031534;28;20377;-41
2022/10/16 06:48:34;;;;;;;2.17;1.97;;;;;;;;;;5034957;28;20522;-45
2022/10/16 06:51:00;;;;;;;2.23;2.03;;;;;;;;;;5039146;28;20802;-43
2022/10/16 06:53:27;;;;;;;1.93;1.80;;;;;;;;;;5030750;28;20405;-42
2022/10/16 06:55:53;;;;;;;1.80;1.70;;;;;;;;;;5029999;28;20402;-43
2022/10/16 06:58:19;;;;;;;2.03;1.93;;;;;;;;;;5030779;28;21026;-41
2022/10/16 07:00:45;;;;;;;5.43;1.93;;;;;;;;;;5030085;28;20458;-41
2022/10/16 07:03:11;;;;;;;1.83;1.73;;;;;;;;;;5031583;28;20417;-41
2022/10/16 07:05:38;;;;;;;4.27;2.17;;;;;;;;;;5044410;28;20411;-42
2022/10/16 07:08:05;;;;;;;2.93;2.20;;;;;;;;;;5052251;28;20430;-41
2022/10/16 07:10:31;;;;;;;2.53;2.03;;;;;;;;;;5038926;28;20445;-43
2022/10/16 07:12:57;;;;;;;1.93;1.83;;;;;;;;;;5051807;28;20417;-43
2022/10/16 07:15:24;;;;;;;2.10;1.90;;;;;;;;;;5051586;28;20442;-43
2022/10/16 07:17:50;;;;;;;2.20;2.00;;;;;;;;;;5051466;28;20406;-43
2022/10/16 07:20:16;;;;;;;1.93;1.83;;;;;;;;;;5050816;28;20563;-43
2022/10/16 07:22:44;;;;;;;2.27;1.93;;;;;;;;;;5052355;28;20488;-43
2022/10/16 07:25:11;;;;;;;1.80;1.70;;;;;;;;;;5037178;28;20389;-43
2022/10/16 07:27:37;;;;;;;2.83;2.00;;;;;;;;;;5031626;28;20406;-43
2022/10/16 07:30:03;;;;;;;2.90;2.20;;;;;;;;;;5030927;28;20517;-43
2022/10/16 07:32:29;;;;;;;2.00;1.90;;;;;;;;;;5031425;28;20410;-43
2022/10/16 07:34:55;;;;;;;2.70;1.93;;;;;;;;;;5031538;28;20420;-43
2022/10/16 07:37:22;;;;;;;1.90;1.80;;;;;;;;;;5031362;28;20437;-43
2022/10/16 07:39:48;;;;;;;3.60;2.57;;;;;;;;;;5030935;28;20488;-42
2022/10/16 07:42:14;;;;;;;4.63;2.60;;;;;;;;;;5036166;28;20409;-42
2022/10/16 07:44:40;;;;;;;4.10;2.10;;;;;;;;;;5040773;28;20414;-43
2022/10/16 07:47:06;;;;;;;4.50;2.43;;;;;;;;;;5036555;28;20442;-42
2022/10/16 07:49:32;;;;;;;3.67;2.00;;;;;;;;;;5030512;28;20884;-42
2022/10/16 07:51:58;;;;;;;1.90;1.80;;;;;;;;;;5031345;28;20435;-43
2022/10/16 07:54:24;;;;;;;2.70;2.50;;;;;;;;;;5033059;28;20939;-42
2022/10/16 07:56:50;;;;;;;4.33;2.30;;;;;;;;;;5035147;28;20865;-42
2022/10/16 07:59:16;;;;;;;5.20;2.20;;;;;;;;;;5034390;28;20870;-43
2022/10/16 08:01:42;;;;;;;1.93;1.83;;;;;;;;;;5043902;28;20409;-43
2022/10/16 08:04:09;;;;;;;2.70;2.10;;;;;;;;;;5049341;28;20408;-46
2022/10/16 08:06:36;;;;;;;3.73;2.30;;;;;;;;;;5043075;28;20434;-48
2022/10/16 08:09:03;;;;;;;2.40;1.83;;;;;;;;;;5034448;28;20920;-47
2022/10/16 08:11:29;;;;;;;2.30;2.10;;;;;;;;;;5036859;28;20401;-43
2022/10/16 08:13:54;;;;;;;2.23;2.10;;;;;;;;;;5051116;28;20380;-43
2022/10/16 08:16:21;;;;;;;2.30;2.10;;;;;;;;;;5054744;28;20408;-43
2022/10/16 08:18:47;;;;;;;4.97;2.60;;;;;;;;;;5054241;28;20392;-43
2022/10/16 08:21:14;;;;;;;2.43;1.70;;;;;;;;;;5054104;28;20387;-45
2022/10/16 08:23:40;;;;;;;2.53;2.07;;;;;;;;;;5054518;28;20377;-47
2022/10/16 08:26:06;;;;;;;5.83;2.00;;;;;;;;;;5054674;28;20379;-47
2022/10/16 08:28:32;;;;;;;1.60;1.50;;;;;;;;;;5054099;28;20425;-46
2022/10/16 08:31:05;;;;;;;4.20;1.83;;;;;;;;;;5054021;28;20381;-47
2022/10/16 08:33:31;;;;;;;4.87;2.07;;;;;;;;;;5054308;28;20382;-46
2022/10/16 08:35:57;;;;;;;2.33;2.13;;;;;;;;;;5054304;28;20384;-46
2022/10/16 08:38:23;;;;;;;1.93;1.83;;;;;;;;;;5054142;28;20442;-46
2022/10/16 08:40:49;;;;;;;4.50;1.90;;;;;;;;;;5053545;28;20434;-46
2022/10/16 08:43:21;;;;;;;5.20;2.17;;;;;;;;;;5053579;28;20383;-46
2022/10/16 08:45:56;;;;;;;1.97;1.77;;;;;;;;;;5045669;28;20934;-43
2022/10/16 08:48:25;;;;;;;3.43;2.00;;;;;;;;;;5035971;28;20437;-43
2022/10/16 08:50:52;;;;;;;5.83;1.57;;;;;;;;;;5034439;28;20453;-43
2022/10/16 08:53:24;;;;;;;2.90;2.17;;;;;;;;;;5037243;28;20403;-43
2022/10/16 08:55:52;;;;;;;4.93;1.80;;;;;;;;;;5037061;28;20459;-44
2022/10/16 08:58:19;;;;;;;4.20;1.50;;;;;;;;;;5019212;28;20437;-47
2022/10/16 09:00:50;;;;;;;2.90;1.53;;;;;;;;;;5033263;28;20483;-46
2022/10/16 09:03:36;;;;;;;1.57;1.30;;;;;;;;;;5034190;28;20859;-47
2022/10/16 09:06:05;;;;;;;4.23;1.70;;;;;;;;;;5033159;28;20958;-47
2022/10/16 09:08:57;;;;;;;2.20;1.10;;;;;;;;;;5033819;28;20916;-47
2022/10/16 09:11:59;;;;;;;11.50;2.60;;;;;;;;;;5031648;28;20520;-48
2022/10/16 09:14:43;;;;;;;2.80;1.20;;;;;;;;;;4991964;28;20418;-48
2022/10/16 09:17:22;;;;;;;1.10;1.00;;;;;;;;;;5030398;28;20464;-46
2022/10/16 09:20:04;;;;;;;2.60;1.30;;;;;;;;;;5033029;28;20457;-44
2022/10/16 09:22:31;;;;;;;1.60;1.20;;;;;;;;;;5033862;28;20464;-44
2022/10/16 09:25:00;;;;;;;3.20;1.13;;;;;;;;;;5039394;28;20953;-44
2022/10/16 09:27:26;;;;;;;1.50;1.20;;;;;;;;;;5051385;28;20407;-48
2022/10/16 09:29:52;;;;;;;2.50;1.20;;;;;;;;;;5051536;28;20436;-47
2022/10/16 09:32:20;;;;;;;3.30;1.40;;;;;;;;;;5053198;28;20404;-46
2022/10/16 09:34:47;;;;;;;3.73;1.00;;;;;;;;;;5052724;28;20834;-44
2022/10/16 09:37:15;;;;;;;4.63;1.30;;;;;;;;;;5053120;28;20511;-47
2022/10/16 09:39:47;;;;;;;3.83;1.40;;;;;;;;;;5052274;28;20453;-47
2022/10/16 09:42:24;;;;;;;2.30;1.00;;;;;;;;;;5053211;28;20424;-45
2022/10/16 09:44:51;;;;;;;1.73;1.23;;;;;;;;;;5053187;28;20911;-49
2022/10/16 09:47:21;;;;;;;1.77;1.20;;;;;;;;;;5053208;28;20451;-47
2022/10/16 09:49:53;;;;;;;3.43;1.20;;;;;;;;;;5052371;28;21058;-46
2022/10/16 09:52:19;;;;;;;2.77;1.30;;;;;;;;;;5053160;28;20415;-46
2022/10/16 09:54:55;;;;;;;1.83;1.03;;;;;;;;;;5052929;28;20397;-45
2022/10/16 09:57:22;;;;;;;2.27;1.00;;;;;;;;;;5053140;28;20543;-46
2022/10/16 09:59:52;;;;;;;2.30;1.30;;;;;;;;;;5052151;28;20460;-46
2022/10/16 10:02:19;;;;;;;1.93;1.00;;;;;;;;;;5052865;28;20413;-44
2022/10/16 10:04:50;;;;;;;1.33;1.07;;;;;;;;;;5052871;28;20484;-46
2022/10/16 10:07:19;;;;;;;2.07;1.10;;;;;;;;;;5052741;28;20397;-46
2022/10/16 10:09:46;;;;;;;4.60;1.23;;;;;;;;;;5052328;28;20421;-46
2022/10/16 10:12:18;;;;;;;2.60;1.37;;;;;;;;;;5051684;28;20449;-47
2022/10/16 10:14:52;;;;;;;3.83;1.10;;;;;;;;;;5052713;28;20923;-47
2022/10/16 10:17:19;;;;;;;2.27;1.23;;;;;;;;;;5051842;28;20410;-45
2022/10/16 10:19:48;;;;;;;2.17;1.10;;;;;;;;;;5051705;28;20548;-47
2022/10/16 10:22:29;;;;;;;3.07;1.50;;;;;;;;;;5053147;28;20398;-48
2022/10/16 10:25:05;;;;;;;2.10;1.10;;;;;;;;;;5052471;28;20409;-47
2022/10/16 10:27:46;;;;;;;2.60;1.30;;;;;;;;;;5052585;28;20402;-46
2022/10/16 10:30:31;;;;;;;1.17;1.00;;;;;;;;;;5049513;28;20417;-46
2022/10/16 10:33:08;;;;;;;5.03;1.40;;;;;;;;;;5052363;28;20480;-46
2022/10/16 10:35:43;;;;;;;4.50;0.90;;;;;;;;;;5052069;28;20912;-47
2022/10/16 10:38:27;;;;;;;1.10;1.00;;;;;;;;;;5051869;28;20465;-47
2022/10/16 10:41:23;;;;;;;1.87;1.03;;;;;;;;;;5051649;28;20810;-47
2022/10/16 10:43:57;;;;;;;3.13;1.33;;;;;;;;;;5032288;28;20515;-48
2022/10/16 10:46:39;;;;;;;1.80;1.00;;;;;;;;;;5052185;28;20485;-47
2022/10/16 10:49:11;;;;;;;2.60;1.20;;;;;;;;;;5051631;28;20425;-48
2022/10/16 10:51:43;;;;;;;2.20;0.97;;;;;;;;;;5051580;28;20934;-47
2022/10/16 10:54:21;;;;;;;3.37;1.00;;;;;;;;;;5052060;28;20484;-47
2022/10/16 10:56:51;;;;;;;0.90;0.70;;;;;;;;;;5052354;28;20485;-48
2022/10/16 10:59:33;;;;;;;1.63;0.90;;;;;;;;;;5051046;28;20451;-47
2022/10/16 11:02:01;;;;;;;2.23;1.03;;;;;;;;;;5052006;28;20397;-47
2022/10/16 11:04:45;;;;;;;2.63;1.00;;;;;;;;;;5051445;28;20458;-46
2022/10/16 11:07:18;;;;;;;1.10;1.00;;;;;;;;;;5051722;28;20409;-47
2022/10/16 11:10:04;;;;;;;3.07;1.23;;;;;;;;;;5051020;28;20428;-44
2022/10/16 11:12:32;;;;;;;1.33;0.90;;;;;;;;;;5051803;28;20449;-44
2022/10/16 11:15:04;;;;;;;3.53;1.00;;;;;;;;;;5051657;28;20405;-44
2022/10/16 11:17:41;;;;;;;1.40;1.00;;;;;;;;;;5051719;28;20424;-44
2022/10/16 11:20:20;;;;;;;2.90;1.10;;;;;;;;;;5050895;28;20463;-44
2022/10/16 11:22:56;;;;;;;1.77;0.70;;;;;;;;;;5050065;28;20474;-44
2022/10/16 11:25:22;;;;;;;4.83;1.00;;;;;;;;;;5051392;28;20399;-44
2022/10/16 11:28:00;;;;;;;1.30;0.80;;;;;;;;;;5052515;28;20421;-44
2022/10/16 11:30:27;;;;;;;3.60;0.80;;;;;;;;;;5055525;28;20759;-44
2022/10/16 11:33:05;;;;;;;5.33;1.00;;;;;;;;;;5055238;28;20408;-44
2022/10/16 11:35:40;;;;;;;0.90;0.83;;;;;;;;;;5055651;28;20397;-43
2022/10/16 11:38:25;;;;;;;4.40;0.90;;;;;;;;;;5055339;28;20420;-44
2022/10/16 11:40:52;;;;;;;2.20;0.97;;;;;;;;;;5054610;28;20456;-44
2022/10/16 11:43:23;;;;;;;4.57;0.77;;;;;;;;;;5055274;28;20913;-44
2022/10/16 11:45:54;;;;;;;3.60;0.93;;;;;;;;;;5055416;28;20397;-44
2022/10/16 11:48:26;;;;;;;3.10;1.07;;;;;;;;;;5055037;28;20450;-44
2022/10/16 11:50:59;;;;;;;2.83;0.80;;;;;;;;;;5054487;28;20500;-44
2022/10/16 11:53:54;;;;;;;3.23;1.10;;;;;;;;;;5055360;28;20488;-44
2022/10/16 11:56:20;;;;;;;1.53;0.87;;;;;;;;;;5050066;28;20976;-44
2022/10/16 11:58:52;;;;;;;1.53;0.80;;;;;;;;;;5054656;28;20983;-44
2022/10/16 12:01:22;;;;;;;3.37;0.90;;;;;;;;;;5054490;28;20405;-44
2022/10/16 12:03:51;;;;;;;1.47;0.80;;;;;;;;;;5054927;28;20421;-44
2022/10/16 12:06:28;;;;;;;2.70;0.80;;;;;;;;;;5054792;28;20607;-44
2022/10/16 12:08:56;;;;;;;3.17;0.90;;;;;;;;;;5054130;28;20984;-44
2022/10/16 12:11:28;;;;;;;3.37;0.90;;;;;;;;;;5054477;28;20620;-44
2022/10/16 12:14:08;;;;;;;2.03;1.33;;;;;;;;;;5054886;28;20451;-44
2022/10/16 12:16:34;;;;;;;1.70;1.03;;;;;;;;;;5054857;28;20389;-44
2022/10/16 12:19:13;;;;;;;1.37;0.70;;;;;;;;;;5054635;28;20488;-44
2022/10/16 12:21:40;;;;;;;1.93;0.80;;;;;;;;;;5054459;28;20849;-44
2022/10/16 12:24:06;;;;;;;2.93;1.10;;;;;;;;;;5054485;28;20439;-44
2022/10/16 12:26:33;;;;;;;1.80;1.10;;;;;;;;;;5054732;28;20401;-44
2022/10/16 12:29:22;;;;;;;3.53;0.90;;;;;;;;;;5054307;28;20425;-44
2022/10/16 12:31:49;;;;;;;1.50;0.80;;;;;;;;;;5054680;28;20459;-44
2022/10/16 12:34:24;;;;;;;3.03;1.87;;;;;;;;;;5054674;28;20405;-44
2022/10/16 12:36:50;;;;;;;1.97;1.00;;;;;;;;;;5054547;28;20401;-44
2022/10/16 12:39:23;;;;;;;1.37;1.00;;;;;;;;;;5050119;28;20483;-44
2022/10/16 12:42:00;;;;;;;3.40;1.00;;;;;;;;;;5044279;28;20414;-43
2022/10/16 12:44:26;;;;;;;3.00;1.00;;;;;;;;;;5033637;28;20751;-45
2022/10/16 12:46:52;;;;;;;4.90;1.97;;;;;;;;;;5033670;28;20406;-42
2022/10/16 12:49:24;;;;;;;1.50;0.90;;;;;;;;;;5033912;28;20918;-42
2022/10/16 12:51:50;;;;;;;1.10;0.90;;;;;;;;;;5033102;28;20518;-42
2022/10/16 12:54:35;;;;;;;1.97;1.33;;;;;;;;;;5034175;28;20793;-42
2022/10/16 12:57:14;;;;;;;4.83;0.90;;;;;;;;;;5034384;28;20417;-42
2022/10/16 12:59:43;;;;;;;4.77;0.97;;;;;;;;;;5033438;28;20530;-43
2022/10/16 13:02:24;;;;;;;4.07;1.07;;;;;;;;;;5034219;28;20430;-42
2022/10/16 13:05:00;;;;;;;1.57;0.80;;;;;;;;;;5034192;28;20410;-42
2022/10/16 13:07:25;;;;;;;3.40;0.90;;;;;;;;;;5034174;28;20471;-42
2022/10/16 13:10:04;;;;;;;0.90;0.80;;;;;;;;;;5033315;28;20902;-42
2022/10/16 13:12:36;;;;;;;1.10;0.70;;;;;;;;;;5034159;28;20190;-41
2022/10/16 13:15:21;;;;;;;2.70;0.90;;;;;;;;;;5033724;28;20406;-42
2022/10/16 13:17:53;;;;;;;3.57;0.93;;;;;;;;;;5033972;28;20409;-45
2022/10/16 13:20:32;;;;;;;3.40;1.00;;;;;;;;;;5033254;28;20456;-45
2022/10/16 13:23:03;;;;;;;1.10;0.80;;;;;;;;;;5033842;28;20844;-43
2022/10/16 13:25:42;;;;;;;1.23;1.00;;;;;;;;;;5033634;28;20399;-44
2022/10/16 13:28:09;;;;;;;7.33;1.30;;;;;;;;;;5033704;28;20902;-43
2022/10/16 13:30:40;;;;;;;1.30;1.20;;;;;;;;;;5033095;28;20406;-42
2022/10/16 13:33:17;;;;;;;2.20;1.13;;;;;;;;;;5033523;28;20441;-43
2022/10/16 13:35:50;;;;;;;1.63;1.27;;;;;;;;;;5033575;28;20408;-42
2022/10/16 13:38:21;;;;;;;5.00;1.33;;;;;;;;;;5033288;28;20479;-45
2022/10/16 13:40:54;;;;;;;1.87;0.93;;;;;;;;;;5032904;28;20450;-43
2022/10/16 13:43:22;;;;;;;1.63;1.07;;;;;;;;;;5033337;28;20459;-42
2022/10/16 13:46:02;;;;;;;2.60;0.90;;;;;;;;;;5033368;28;20434;-42
2022/10/16 13:48:29;;;;;;;2.07;0.93;;;;;;;;;;5033065;28;20418;-42
2022/10/16 13:51:07;;;;;;;5.00;1.00;;;;;;;;;;5032607;28;20402;-42
2022/10/16 13:53:36;;;;;;;3.37;1.00;;;;;;;;;;5033235;28;20398;-42
2022/10/16 13:56:03;;;;;;;1.37;1.20;;;;;;;;;;5033183;28;20847;-43
2022/10/16 13:58:29;;;;;;;1.93;0.87;;;;;;;;;;5032848;28;20959;-42
2022/10/16 14:00:57;;;;;;;2.50;0.90;;;;;;;;;;5032332;28;20951;-43
2022/10/16 14:03:23;;;;;;;0.90;0.80;;;;;;;;;;5032946;28;20426;-43
2022/10/16 14:05:51;;;;;;;1.37;1.00;;;;;;;;;;5032976;28;20406;-42
2022/10/16 14:08:17;;;;;;;3.00;1.60;;;;;;;;;;5032822;28;20509;-43
2022/10/16 14:10:43;;;;;;;2.10;1.10;;;;;;;;;;5032262;28;20436;-43
2022/10/16 14:13:17;;;;;;;2.97;2.30;;;;;;;;;;5032861;28;20886;-44
2022/10/16 14:15:47;;;;;;;3.73;1.80;;;;;;;;;;5032803;28;20480;-42
2022/10/16 14:18:20;;;;;;;2.37;0.90;;;;;;;;;;5032547;28;20424;-42
2022/10/16 14:20:47;;;;;;;2.17;0.80;;;;;;;;;;5032113;28;20461;-42
2022/10/16 14:23:34;;;;;;;1.83;1.10;;;;;;;;;;5032788;28;20492;-42
2022/10/16 14:26:26;;;;;;;4.60;0.90;;;;;;;;;;5032566;28;20398;-44
2022/10/16 14:29:09;;;;;;;3.63;1.20;;;;;;;;;;5030456;28;21041;-43
2022/10/16 14:31:37;;;;;;;1.00;0.87;;;;;;;;;;5032184;28;20406;-44
2022/10/16 14:34:04;;;;;;;2.77;1.60;;;;;;;;;;5050487;28;20422;-43
2022/10/16 14:36:30;;;;;;;7.80;1.20;;;;;;;;;;5052055;28;20436;-42
2022/10/16 14:39:02;;;;;;;4.10;1.10;;;;;;;;;;5051835;28;20417;-42
2022/10/16 14:41:29;;;;;;;4.33;1.27;;;;;;;;;;5051644;28;20945;-42
2022/10/16 14:43:56;;;;;;;1.77;0.93;;;;;;;;;;5051967;28;20399;-42
2022/10/16 14:46:28;;;;;;;2.33;1.20;;;;;;;;;;5052047;28;20406;-42
2022/10/16 14:48:58;;;;;;;2.03;1.87;;;;;;;;;;5051922;28;20425;-42
2022/10/16 14:51:24;;;;;;;1.80;1.10;;;;;;;;;;5051618;28;20436;-42
2022/10/16 14:53:51;;;;;;;1.40;0.90;;;;;;;;;;5051888;28;20406;-43
2022/10/16 14:56:19;;;;;;;4.80;1.50;;;;;;;;;;5051948;28;20818;-42